sensor_id;sensor_type;location;lat;lon;timestamp;temperature;humidity
18541;DHT22;9400;50.924;5.328;2022-10-28T00:00:51;19.10;99.90
18541;DHT22;9400;50.924;5.328;2022-10-28T00:03:19;19.00;99.90
18541;DHT22;9400;50.924;5.328;2022-10-28T00:05:47;19.00;99.90
18541;DHT22;9400;50.924;5.328;2022-10-28T00:08:16;19.00;99.90
18541;DHT22;9400;50.924;5.328;2022-10-28T00:10:44;18.90;99.90
18541;DHT22;9400;50.924;5.328;2022-10-28T00:13:11;18.90;99.90
18541;DHT22;9400;50.924;5.328;2022-10-28T00:15:39;18.80;99.90
18541;DHT22;9400;50.924;5.328;2022-10-28T00:18:06;18.80;99.90
18541;DHT22;9400;50.924;5.328;2022-10-28T00:20:34;18.80;99.90
18541;DHT22;9400;50.924;5.328;2022-10-28T00:23:01;18.70;99.90
18541;DHT22;9400;50.924;5.328;2022-10-28T00:25:31;18.80;99.90
18541;DHT22;9400;50.924;5.328;2022-10-28T00:27:58;18.80;99.90
18541;DHT22;9400;50.924;5.328;2022-10-28T00:30:26;18.80;99.90
18541;DHT22;9400;50.924;5.328;2022-10-28T00:32:54;18.70;99.90
18541;DHT22;9400;50.924;5.328;2022-10-28T00:35:22;18.70;99.90
18541;DHT22;9400;50.924;5.328;2022-10-28T00:37:52;18.70;99.90
18541;DHT22;9400;50.924;5.328;2022-10-28T00:40:21;18.70;99.90
18541;DHT22;9400;50.924;5.328;2022-10-28T00:42:50;18.60;99.90
18541;DHT22;9400;50.924;5.328;2022-10-28T00:45:18;18.70;99.90
18541;DHT22;9400;50.924;5.328;2022-10-28T00:47:48;18.60;99.90
18541;DHT22;9400;50.924;5.328;2022-10-28T00:50:37;18.60;99.90
18541;DHT22;9400;50.924;5.328;2022-10-28T00:53:10;18.60;99.90
18541;DHT22;9400;50.924;5.328;2022-10-28T00:55:38;18.60;99.90
18541;DHT22;9400;50.924;5.328;2022-10-28T00:58:08;18.50;99.90
18541;DHT22;9400;50.924;5.328;2022-10-28T01:00:37;18.50;99.90
18541;DHT22;9400;50.924;5.328;2022-10-28T01:03:05;18.50;99.90
18541;DHT22;9400;50.924;5.328;2022-10-28T01:05:35;18.40;99.90
18541;DHT22;9400;50.924;5.328;2022-10-28T01:08:04;18.50;99.90
18541;DHT22;9400;50.924;5.328;2022-10-28T01:11:00;18.50;99.90
18541;DHT22;9400;50.924;5.328;2022-10-28T01:13:38;18.50;99.90
18541;DHT22;9400;50.924;5.328;2022-10-28T01:16:15;18.50;99.90
18541;DHT22;9400;50.924;5.328;2022-10-28T01:18:53;18.50;99.90
18541;DHT22;9400;50.924;5.328;2022-10-28T01:24:55;18.40;99.90
18541;DHT22;9400;50.924;5.328;2022-10-28T01:31:03;18.20;99.90
18541;DHT22;9400;50.924;5.328;2022-10-28T01:33:36;18.20;99.90
18541;DHT22;9400;50.924;5.328;2022-10-28T01:36:12;18.10;99.90
18541;DHT22;9400;50.924;5.328;2022-10-28T01:38:49;18.10;99.90
18541;DHT22;9400;50.924;5.328;2022-10-28T01:41:23;18.10;99.90
18541;DHT22;9400;50.924;5.328;2022-10-28T01:43:57;18.10;99.90
18541;DHT22;9400;50.924;5.328;2022-10-28T01:46:33;18.10;99.90
18541;DHT22;9400;50.924;5.328;2022-10-28T01:49:07;18.10;99.90
18541;DHT22;9400;50.924;5.328;2022-10-28T01:51:39;18.10;99.90
18541;DHT22;9400;50.924;5.328;2022-10-28T01:54:08;18.10;99.90
18541;DHT22;9400;50.924;5.328;2022-10-28T01:56:39;18.10;99.90
18541;DHT22;9400;50.924;5.328;2022-10-28T01:59:13;18.10;99.90
18541;DHT22;9400;50.924;5.328;2022-10-28T02:01:45;18.10;99.90
18541;DHT22;9400;50.924;5.328;2022-10-28T02:04:14;18.00;99.90
18541;DHT22;9400;50.924;5.328;2022-10-28T02:06:43;18.00;99.90
18541;DHT22;9400;50.924;5.328;2022-10-28T02:09:21;18.00;99.90
18541;DHT22;9400;50.924;5.328;2022-10-28T02:12:17;18.00;99.90
18541;DHT22;9400;50.924;5.328;2022-10-28T02:15:05;18.10;99.90
18541;DHT22;9400;50.924;5.328;2022-10-28T02:17:49;18.00;99.90
18541;DHT22;9400;50.924;5.328;2022-10-28T02:20:29;18.00;99.90
18541;DHT22;9400;50.924;5.328;2022-10-28T02:23:07;18.00;99.90
18541;DHT22;9400;50.924;5.328;2022-10-28T02:25:42;18.00;99.90
18541;DHT22;9400;50.924;5.328;2022-10-28T02:28:16;18.00;99.90
18541;DHT22;9400;50.924;5.328;2022-10-28T02:30:48;18.00;99.90
18541;DHT22;9400;50.924;5.328;2022-10-28T02:33:23;18.00;99.90
18541;DHT22;9400;50.924;5.328;2022-10-28T02:35:56;18.00;99.90
18541;DHT22;9400;50.924;5.328;2022-10-28T02:38:29;18.00;99.90
18541;DHT22;9400;50.924;5.328;2022-10-28T02:41:02;18.00;99.90
18541;DHT22;9400;50.924;5.328;2022-10-28T02:43:31;18.00;99.90
18541;DHT22;9400;50.924;5.328;2022-10-28T02:46:02;17.90;99.90
18541;DHT22;9400;50.924;5.328;2022-10-28T02:48:37;17.90;99.90
18541;DHT22;9400;50.924;5.328;2022-10-28T02:51:08;17.90;99.90
18541;DHT22;9400;50.924;5.328;2022-10-28T02:53:48;17.90;99.90
18541;DHT22;9400;50.924;5.328;2022-10-28T02:56:17;17.90;99.90
18541;DHT22;9400;50.924;5.328;2022-10-28T02:58:47;17.90;99.90
18541;DHT22;9400;50.924;5.328;2022-10-28T03:01:15;17.90;99.90
18541;DHT22;9400;50.924;5.328;2022-10-28T03:03:44;17.90;99.90
18541;DHT22;9400;50.924;5.328;2022-10-28T03:06:12;17.80;99.90
18541;DHT22;9400;50.924;5.328;2022-10-28T03:08:39;17.80;99.90
18541;DHT22;9400;50.924;5.328;2022-10-28T03:11:07;17.80;99.90
18541;DHT22;9400;50.924;5.328;2022-10-28T03:13:34;17.70;99.90
18541;DHT22;9400;50.924;5.328;2022-10-28T03:16:02;17.70;99.90
18541;DHT22;9400;50.924;5.328;2022-10-28T03:18:30;17.60;99.90
18541;DHT22;9400;50.924;5.328;2022-10-28T03:20:59;17.60;99.90
18541;DHT22;9400;50.924;5.328;2022-10-28T03:23:27;17.60;99.90
18541;DHT22;9400;50.924;5.328;2022-10-28T03:25:55;17.60;99.90
18541;DHT22;9400;50.924;5.328;2022-10-28T03:28:25;17.60;99.90
18541;DHT22;9400;50.924;5.328;2022-10-28T03:30:53;17.50;99.90
18541;DHT22;9400;50.924;5.328;2022-10-28T03:33:20;17.50;99.90
18541;DHT22;9400;50.924;5.328;2022-10-28T03:35:48;17.50;99.90
18541;DHT22;9400;50.924;5.328;2022-10-28T03:38:17;17.50;99.90
18541;DHT22;9400;50.924;5.328;2022-10-28T03:40:47;17.50;99.90
18541;DHT22;9400;50.924;5.328;2022-10-28T03:43:15;17.50;99.90
18541;DHT22;9400;50.924;5.328;2022-10-28T03:45:43;17.50;99.90
18541;DHT22;9400;50.924;5.328;2022-10-28T03:48:10;17.50;99.90
18541;DHT22;9400;50.924;5.328;2022-10-28T03:50:38;17.50;99.90
18541;DHT22;9400;50.924;5.328;2022-10-28T03:53:06;17.50;99.90
18541;DHT22;9400;50.924;5.328;2022-10-28T03:55:35;17.50;99.90
18541;DHT22;9400;50.924;5.328;2022-10-28T03:58:03;17.50;99.90
18541;DHT22;9400;50.924;5.328;2022-10-28T04:00:31;17.50;99.90
18541;DHT22;9400;50.924;5.328;2022-10-28T04:02:58;17.50;99.90
18541;DHT22;9400;50.924;5.328;2022-10-28T04:05:26;17.50;99.90
18541;DHT22;9400;50.924;5.328;2022-10-28T04:07:54;17.40;99.90
18541;DHT22;9400;50.924;5.328;2022-10-28T04:10:22;17.40;99.90
18541;DHT22;9400;50.924;5.328;2022-10-28T04:12:51;17.40;99.90
18541;DHT22;9400;50.924;5.328;2022-10-28T04:15:19;17.40;99.90
18541;DHT22;9400;50.924;5.328;2022-10-28T04:17:47;17.40;99.90
18541;DHT22;9400;50.924;5.328;2022-10-28T04:20:15;17.40;99.90
18541;DHT22;9400;50.924;5.328;2022-10-28T04:22:43;17.40;99.90
18541;DHT22;9400;50.924;5.328;2022-10-28T04:25:10;17.40;99.90
18541;DHT22;9400;50.924;5.328;2022-10-28T04:27:38;17.30;99.90
18541;DHT22;9400;50.924;5.328;2022-10-28T04:30:09;17.30;99.90
18541;DHT22;9400;50.924;5.328;2022-10-28T04:32:38;17.30;99.90
18541;DHT22;9400;50.924;5.328;2022-10-28T04:35:06;17.30;99.90
18541;DHT22;9400;50.924;5.328;2022-10-28T04:37:34;17.30;99.90
18541;DHT22;9400;50.924;5.328;2022-10-28T04:40:02;17.30;99.90
18541;DHT22;9400;50.924;5.328;2022-10-28T04:42:30;17.30;99.90
18541;DHT22;9400;50.924;5.328;2022-10-28T04:44:57;17.30;99.90
18541;DHT22;9400;50.924;5.328;2022-10-28T04:47:26;17.30;99.90
18541;DHT22;9400;50.924;5.328;2022-10-28T04:49:55;17.30;99.90
18541;DHT22;9400;50.924;5.328;2022-10-28T04:52:22;17.30;99.90
18541;DHT22;9400;50.924;5.328;2022-10-28T04:54:50;17.30;99.90
18541;DHT22;9400;50.924;5.328;2022-10-28T04:57:18;17.40;99.90
18541;DHT22;9400;50.924;5.328;2022-10-28T04:59:46;17.30;99.90
18541;DHT22;9400;50.924;5.328;2022-10-28T05:02:13;17.30;99.90
18541;DHT22;9400;50.924;5.328;2022-10-28T05:04:45;17.30;99.90
18541;DHT22;9400;50.924;5.328;2022-10-28T05:07:13;17.30;99.90
18541;DHT22;9400;50.924;5.328;2022-10-28T05:09:40;17.30;99.90
18541;DHT22;9400;50.924;5.328;2022-10-28T05:12:08;17.30;99.90
18541;DHT22;9400;50.924;5.328;2022-10-28T05:14:37;17.30;99.90
18541;DHT22;9400;50.924;5.328;2022-10-28T05:17:06;17.30;99.90
18541;DHT22;9400;50.924;5.328;2022-10-28T05:19:34;17.30;99.90
18541;DHT22;9400;50.924;5.328;2022-10-28T05:22:03;17.30;99.90
18541;DHT22;9400;50.924;5.328;2022-10-28T05:24:31;17.30;99.90
18541;DHT22;9400;50.924;5.328;2022-10-28T05:26:58;17.30;99.90
18541;DHT22;9400;50.924;5.328;2022-10-28T05:29:26;17.30;99.90
18541;DHT22;9400;50.924;5.328;2022-10-28T05:31:54;17.30;99.90
18541;DHT22;9400;50.924;5.328;2022-10-28T05:34:22;17.30;99.90
18541;DHT22;9400;50.924;5.328;2022-10-28T05:36:50;17.30;99.90
18541;DHT22;9400;50.924;5.328;2022-10-28T05:39:19;17.20;99.90
18541;DHT22;9400;50.924;5.328;2022-10-28T05:41:47;17.20;99.90
18541;DHT22;9400;50.924;5.328;2022-10-28T05:44:14;17.20;99.90
18541;DHT22;9400;50.924;5.328;2022-10-28T05:46:42;17.10;99.90
18541;DHT22;9400;50.924;5.328;2022-10-28T05:49:10;17.10;99.90
18541;DHT22;9400;50.924;5.328;2022-10-28T05:51:37;17.10;99.90
18541;DHT22;9400;50.924;5.328;2022-10-28T05:54:05;17.10;99.90
18541;DHT22;9400;50.924;5.328;2022-10-28T05:56:34;17.10;99.90
18541;DHT22;9400;50.924;5.328;2022-10-28T05:59:02;17.00;99.90
18541;DHT22;9400;50.924;5.328;2022-10-28T06:01:30;16.90;99.90
18541;DHT22;9400;50.924;5.328;2022-10-28T06:03:57;16.90;99.90
18541;DHT22;9400;50.924;5.328;2022-10-28T06:06:26;16.90;99.90
18541;DHT22;9400;50.924;5.328;2022-10-28T06:08:54;16.90;99.90
18541;DHT22;9400;50.924;5.328;2022-10-28T06:11:22;16.90;99.90
18541;DHT22;9400;50.924;5.328;2022-10-28T06:13:51;16.80;99.90
18541;DHT22;9400;50.924;5.328;2022-10-28T06:16:19;16.80;99.90
18541;DHT22;9400;50.924;5.328;2022-10-28T06:18:47;16.80;99.90
18541;DHT22;9400;50.924;5.328;2022-10-28T06:21:15;16.80;99.90
18541;DHT22;9400;50.924;5.328;2022-10-28T06:23:42;16.80;99.90
18541;DHT22;9400;50.924;5.328;2022-10-28T06:26:10;16.80;99.90
18541;DHT22;9400;50.924;5.328;2022-10-28T06:28:37;16.80;99.90
18541;DHT22;9400;50.924;5.328;2022-10-28T06:31:08;16.80;99.90
18541;DHT22;9400;50.924;5.328;2022-10-28T06:33:35;16.80;99.90
18541;DHT22;9400;50.924;5.328;2022-10-28T06:36:03;16.80;99.90
18541;DHT22;9400;50.924;5.328;2022-10-28T06:38:31;16.80;99.90
18541;DHT22;9400;50.924;5.328;2022-10-28T06:40:59;16.80;99.90
18541;DHT22;9400;50.924;5.328;2022-10-28T06:43:27;16.80;99.90
18541;DHT22;9400;50.924;5.328;2022-10-28T06:45:55;16.90;99.90
18541;DHT22;9400;50.924;5.328;2022-10-28T06:48:24;16.90;99.90
18541;DHT22;9400;50.924;5.328;2022-10-28T06:50:54;17.00;99.90
18541;DHT22;9400;50.924;5.328;2022-10-28T06:53:23;17.00;99.90
18541;DHT22;9400;50.924;5.328;2022-10-28T06:55:54;17.10;99.90
18541;DHT22;9400;50.924;5.328;2022-10-28T06:58:24;17.20;99.90
18541;DHT22;9400;50.924;5.328;2022-10-28T07:00:52;17.20;99.90
18541;DHT22;9400;50.924;5.328;2022-10-28T07:03:20;17.20;99.90
18541;DHT22;9400;50.924;5.328;2022-10-28T07:05:49;17.30;99.90
18541;DHT22;9400;50.924;5.328;2022-10-28T07:08:17;17.30;99.90
18541;DHT22;9400;50.924;5.328;2022-10-28T07:10:52;17.30;99.90
18541;DHT22;9400;50.924;5.328;2022-10-28T07:13:21;17.40;99.90
18541;DHT22;9400;50.924;5.328;2022-10-28T07:15:50;17.40;99.90
18541;DHT22;9400;50.924;5.328;2022-10-28T07:18:18;17.50;99.90
18541;DHT22;9400;50.924;5.328;2022-10-28T07:20:46;17.50;99.90
18541;DHT22;9400;50.924;5.328;2022-10-28T07:23:16;17.50;99.90
18541;DHT22;9400;50.924;5.328;2022-10-28T07:25:51;17.50;99.90
18541;DHT22;9400;50.924;5.328;2022-10-28T07:28:19;17.50;99.90
18541;DHT22;9400;50.924;5.328;2022-10-28T07:30:47;17.50;99.90
18541;DHT22;9400;50.924;5.328;2022-10-28T07:33:15;17.50;99.90
18541;DHT22;9400;50.924;5.328;2022-10-28T07:35:43;17.60;99.90
18541;DHT22;9400;50.924;5.328;2022-10-28T07:38:11;17.60;99.90
18541;DHT22;9400;50.924;5.328;2022-10-28T07:40:39;17.60;99.90
18541;DHT22;9400;50.924;5.328;2022-10-28T07:43:07;17.70;99.90
18541;DHT22;9400;50.924;5.328;2022-10-28T07:45:35;17.80;99.90
18541;DHT22;9400;50.924;5.328;2022-10-28T07:48:04;17.90;99.90
18541;DHT22;9400;50.924;5.328;2022-10-28T07:50:32;18.00;99.90
18541;DHT22;9400;50.924;5.328;2022-10-28T07:53:00;18.00;99.90
18541;DHT22;9400;50.924;5.328;2022-10-28T07:55:28;18.10;99.90
18541;DHT22;9400;50.924;5.328;2022-10-28T07:57:57;18.20;99.90
18541;DHT22;9400;50.924;5.328;2022-10-28T08:00:25;18.30;99.90
18541;DHT22;9400;50.924;5.328;2022-10-28T08:02:53;18.40;99.90
18541;DHT22;9400;50.924;5.328;2022-10-28T08:05:20;18.50;99.90
18541;DHT22;9400;50.924;5.328;2022-10-28T08:07:48;18.60;99.90
18541;DHT22;9400;50.924;5.328;2022-10-28T08:10:16;18.70;99.90
18541;DHT22;9400;50.924;5.328;2022-10-28T08:12:44;18.70;99.90
18541;DHT22;9400;50.924;5.328;2022-10-28T08:15:14;18.90;99.90
18541;DHT22;9400;50.924;5.328;2022-10-28T08:17:43;18.90;99.90
18541;DHT22;9400;50.924;5.328;2022-10-28T08:20:10;19.00;99.90
18541;DHT22;9400;50.924;5.328;2022-10-28T08:22:39;19.10;99.90
18541;DHT22;9400;50.924;5.328;2022-10-28T08:25:09;19.20;99.90
18541;DHT22;9400;50.924;5.328;2022-10-28T08:27:37;19.30;99.90
18541;DHT22;9400;50.924;5.328;2022-10-28T08:30:08;19.40;99.90
18541;DHT22;9400;50.924;5.328;2022-10-28T08:32:37;19.50;99.90
18541;DHT22;9400;50.924;5.328;2022-10-28T08:35:05;19.60;99.90
18541;DHT22;9400;50.924;5.328;2022-10-28T08:37:33;19.70;99.90
18541;DHT22;9400;50.924;5.328;2022-10-28T08:40:01;19.80;99.90
18541;DHT22;9400;50.924;5.328;2022-10-28T08:42:36;19.80;99.90
18541;DHT22;9400;50.924;5.328;2022-10-28T08:45:17;19.80;99.90
18541;DHT22;9400;50.924;5.328;2022-10-28T08:47:55;19.80;99.90
18541;DHT22;9400;50.924;5.328;2022-10-28T08:50:26;19.80;99.90
18541;DHT22;9400;50.924;5.328;2022-10-28T08:52:59;19.90;99.90
18541;DHT22;9400;50.924;5.328;2022-10-28T08:55:30;19.90;99.90
18541;DHT22;9400;50.924;5.328;2022-10-28T08:58:03;20.00;99.90
18541;DHT22;9400;50.924;5.328;2022-10-28T09:00:34;20.10;99.90
18541;DHT22;9400;50.924;5.328;2022-10-28T09:03:14;20.10;99.90
18541;DHT22;9400;50.924;5.328;2022-10-28T09:05:44;20.10;99.90
18541;DHT22;9400;50.924;5.328;2022-10-28T09:08:20;20.10;99.90
18541;DHT22;9400;50.924;5.328;2022-10-28T09:11:22;20.20;99.90
18541;DHT22;9400;50.924;5.328;2022-10-28T09:14:17;20.30;99.90
18541;DHT22;9400;50.924;5.328;2022-10-28T09:16:59;20.40;99.90
18541;DHT22;9400;50.924;5.328;2022-10-28T09:19:41;20.40;99.90
18541;DHT22;9400;50.924;5.328;2022-10-28T09:22:22;20.40;99.90
18541;DHT22;9400;50.924;5.328;2022-10-28T09:24:52;20.50;99.90
18541;DHT22;9400;50.924;5.328;2022-10-28T09:27:43;20.60;99.90
18541;DHT22;9400;50.924;5.328;2022-10-28T09:30:31;20.70;99.90
18541;DHT22;9400;50.924;5.328;2022-10-28T09:33:12;20.80;99.90
18541;DHT22;9400;50.924;5.328;2022-10-28T09:35:45;20.80;99.90
18541;DHT22;9400;50.924;5.328;2022-10-28T09:38:21;20.80;99.90
18541;DHT22;9400;50.924;5.328;2022-10-28T09:40:56;20.80;99.90
18541;DHT22;9400;50.924;5.328;2022-10-28T09:43:28;20.80;99.90
18541;DHT22;9400;50.924;5.328;2022-10-28T09:46:00;20.80;99.90
18541;DHT22;9400;50.924;5.328;2022-10-28T09:48:30;20.90;99.90
18541;DHT22;9400;50.924;5.328;2022-10-28T09:51:00;21.10;99.90
18541;DHT22;9400;50.924;5.328;2022-10-28T09:53:37;21.20;99.90
18541;DHT22;9400;50.924;5.328;2022-10-28T09:56:06;21.40;99.90
18541;DHT22;9400;50.924;5.328;2022-10-28T09:58:35;21.60;99.90
18541;DHT22;9400;50.924;5.328;2022-10-28T10:01:03;21.80;99.90
18541;DHT22;9400;50.924;5.328;2022-10-28T10:03:31;21.90;99.90
18541;DHT22;9400;50.924;5.328;2022-10-28T10:06:10;22.00;99.90
18541;DHT22;9400;50.924;5.328;2022-10-28T10:08:39;22.10;99.90
18541;DHT22;9400;50.924;5.328;2022-10-28T10:11:16;22.20;99.90
18541;DHT22;9400;50.924;5.328;2022-10-28T10:13:48;22.20;99.90
18541;DHT22;9400;50.924;5.328;2022-10-28T10:16:18;22.30;99.90
18541;DHT22;9400;50.924;5.328;2022-10-28T10:18:52;22.40;99.90
18541;DHT22;9400;50.924;5.328;2022-10-28T10:21:40;22.40;99.90
18541;DHT22;9400;50.924;5.328;2022-10-28T10:24:29;22.40;99.90
18541;DHT22;9400;50.924;5.328;2022-10-28T10:26:59;22.30;99.90
18541;DHT22;9400;50.924;5.328;2022-10-28T10:29:28;22.40;99.90
18541;DHT22;9400;50.924;5.328;2022-10-28T10:32:04;22.50;99.90
18541;DHT22;9400;50.924;5.328;2022-10-28T10:34:33;22.60;99.90
18541;DHT22;9400;50.924;5.328;2022-10-28T10:37:03;22.80;99.90
18541;DHT22;9400;50.924;5.328;2022-10-28T10:39:35;23.00;99.90
18541;DHT22;9400;50.924;5.328;2022-10-28T10:42:14;23.10;99.90
18541;DHT22;9400;50.924;5.328;2022-10-28T10:44:43;23.20;99.90
18541;DHT22;9400;50.924;5.328;2022-10-28T10:47:29;23.30;99.90
18541;DHT22;9400;50.924;5.328;2022-10-28T10:50:19;23.30;99.90
18541;DHT22;9400;50.924;5.328;2022-10-28T10:52:57;23.50;99.90
18541;DHT22;9400;50.924;5.328;2022-10-28T10:55:31;23.70;99.90
18541;DHT22;9400;50.924;5.328;2022-10-28T10:58:00;23.80;99.90
18541;DHT22;9400;50.924;5.328;2022-10-28T11:00:32;24.00;99.90
18541;DHT22;9400;50.924;5.328;2022-10-28T11:03:05;24.10;99.90
18541;DHT22;9400;50.924;5.328;2022-10-28T11:05:34;24.30;99.90
18541;DHT22;9400;50.924;5.328;2022-10-28T11:08:04;24.30;99.90
18541;DHT22;9400;50.924;5.328;2022-10-28T11:10:33;24.30;99.90
18541;DHT22;9400;50.924;5.328;2022-10-28T11:16:00;24.50;99.90
18541;DHT22;9400;50.924;5.328;2022-10-28T11:18:28;24.40;99.90
18541;DHT22;9400;50.924;5.328;2022-10-28T11:21:07;24.30;99.90
18541;DHT22;9400;50.924;5.328;2022-10-28T11:23:48;24.20;99.90
18541;DHT22;9400;50.924;5.328;2022-10-28T11:26:19;24.10;99.90
18541;DHT22;9400;50.924;5.328;2022-10-28T11:29:02;24.20;99.90
18541;DHT22;9400;50.924;5.328;2022-10-28T11:34:57;24.30;99.90
18541;DHT22;9400;50.924;5.328;2022-10-28T11:37:40;24.30;99.90
18541;DHT22;9400;50.924;5.328;2022-10-28T11:40:22;24.20;99.90
18541;DHT22;9400;50.924;5.328;2022-10-28T11:43:06;24.30;99.90
18541;DHT22;9400;50.924;5.328;2022-10-28T11:45:40;24.40;99.90
18541;DHT22;9400;50.924;5.328;2022-10-28T11:48:21;24.20;99.90
18541;DHT22;9400;50.924;5.328;2022-10-28T11:51:02;24.20;99.90
18541;DHT22;9400;50.924;5.328;2022-10-28T11:53:45;24.20;99.90
18541;DHT22;9400;50.924;5.328;2022-10-28T11:56:28;24.20;99.90
18541;DHT22;9400;50.924;5.328;2022-10-28T11:59:13;24.50;99.90
18541;DHT22;9400;50.924;5.328;2022-10-28T12:01:51;24.50;99.90
18541;DHT22;9400;50.924;5.328;2022-10-28T12:04:46;24.50;99.90
18541;DHT22;9400;50.924;5.328;2022-10-28T12:10:34;24.70;99.90
18541;DHT22;9400;50.924;5.328;2022-10-28T12:13:15;24.80;99.90
18541;DHT22;9400;50.924;5.328;2022-10-28T12:15:50;24.70;99.90
18541;DHT22;9400;50.924;5.328;2022-10-28T12:18:26;24.50;99.90
18541;DHT22;9400;50.924;5.328;2022-10-28T12:21:00;24.40;99.90
18541;DHT22;9400;50.924;5.328;2022-10-28T12:23:32;24.70;99.90
18541;DHT22;9400;50.924;5.328;2022-10-28T12:26:16;24.80;99.90
18541;DHT22;9400;50.924;5.328;2022-10-28T12:28:48;24.90;99.90
18541;DHT22;9400;50.924;5.328;2022-10-28T12:31:21;25.10;99.90
18541;DHT22;9400;50.924;5.328;2022-10-28T12:33:52;25.30;99.90
18541;DHT22;9400;50.924;5.328;2022-10-28T12:36:28;25.50;99.90
18541;DHT22;9400;50.924;5.328;2022-10-28T12:39:02;25.30;99.90
18541;DHT22;9400;50.924;5.328;2022-10-28T12:41:43;25.00;99.90
18541;DHT22;9400;50.924;5.328;2022-10-28T12:44:17;24.80;99.90
18541;DHT22;9400;50.924;5.328;2022-10-28T12:46:53;24.20;99.90
18541;DHT22;9400;50.924;5.328;2022-10-28T12:49:30;24.20;99.90
18541;DHT22;9400;50.924;5.328;2022-10-28T12:52:16;24.10;99.90
18541;DHT22;9400;50.924;5.328;2022-10-28T12:54:53;24.00;99.90
18541;DHT22;9400;50.924;5.328;2022-10-28T12:57:25;23.90;99.90
18541;DHT22;9400;50.924;5.328;2022-10-28T13:00:01;23.90;99.90
18541;DHT22;9400;50.924;5.328;2022-10-28T13:02:36;23.80;99.90
18541;DHT22;9400;50.924;5.328;2022-10-28T13:05:05;23.80;99.90
18541;DHT22;9400;50.924;5.328;2022-10-28T13:10:36;23.70;99.90
18541;DHT22;9400;50.924;5.328;2022-10-28T13:19:27;23.90;99.90
18541;DHT22;9400;50.924;5.328;2022-10-28T13:22:23;24.00;99.90
18541;DHT22;9400;50.924;5.328;2022-10-28T13:25:00;23.90;99.90
18541;DHT22;9400;50.924;5.328;2022-10-28T13:27:29;23.70;99.90
18541;DHT22;9400;50.924;5.328;2022-10-28T13:29:58;23.80;99.90
18541;DHT22;9400;50.924;5.328;2022-10-28T13:32:31;23.90;99.90
18541;DHT22;9400;50.924;5.328;2022-10-28T13:35:11;24.10;99.90
18541;DHT22;9400;50.924;5.328;2022-10-28T13:37:39;24.30;99.90
18541;DHT22;9400;50.924;5.328;2022-10-28T13:40:21;24.60;99.90
18541;DHT22;9400;50.924;5.328;2022-10-28T13:42:51;24.50;99.90
18541;DHT22;9400;50.924;5.328;2022-10-28T13:45:48;25.10;99.90
18541;DHT22;9400;50.924;5.328;2022-10-28T13:48:47;25.60;99.90
18541;DHT22;9400;50.924;5.328;2022-10-28T13:51:36;25.80;99.90
18541;DHT22;9400;50.924;5.328;2022-10-28T13:54:24;25.70;99.90
18541;DHT22;9400;50.924;5.328;2022-10-28T13:56:53;25.80;99.90
18541;DHT22;9400;50.924;5.328;2022-10-28T13:59:27;25.70;99.90
18541;DHT22;9400;50.924;5.328;2022-10-28T14:02:03;26.00;99.90
18541;DHT22;9400;50.924;5.328;2022-10-28T14:04:32;26.70;99.90
18541;DHT22;9400;50.924;5.328;2022-10-28T14:07:18;26.90;99.90
18541;DHT22;9400;50.924;5.328;2022-10-28T14:09:50;26.60;99.90
18541;DHT22;9400;50.924;5.328;2022-10-28T14:12:27;26.40;99.90
18541;DHT22;9400;50.924;5.328;2022-10-28T14:15:17;26.30;99.90
18541;DHT22;9400;50.924;5.328;2022-10-28T14:17:49;26.10;99.90
18541;DHT22;9400;50.924;5.328;2022-10-28T14:20:30;25.40;99.90
18541;DHT22;9400;50.924;5.328;2022-10-28T14:26:08;25.00;99.90
18541;DHT22;9400;50.924;5.328;2022-10-28T14:28:54;24.70;99.90
18541;DHT22;9400;50.924;5.328;2022-10-28T14:31:40;24.50;99.90
18541;DHT22;9400;50.924;5.328;2022-10-28T14:34:40;24.80;99.90
18541;DHT22;9400;50.924;5.328;2022-10-28T14:40:22;25.00;99.90
18541;DHT22;9400;50.924;5.328;2022-10-28T14:43:26;24.80;99.90
18541;DHT22;9400;50.924;5.328;2022-10-28T14:46:07;24.50;99.90
18541;DHT22;9400;50.924;5.328;2022-10-28T14:48:46;24.70;99.90
18541;DHT22;9400;50.924;5.328;2022-10-28T14:51:16;24.50;99.90
18541;DHT22;9400;50.924;5.328;2022-10-28T14:53:45;24.10;99.90
18541;DHT22;9400;50.924;5.328;2022-10-28T14:56:20;24.00;99.90
18541;DHT22;9400;50.924;5.328;2022-10-28T14:58:49;23.90;99.90
18541;DHT22;9400;50.924;5.328;2022-10-28T15:01:25;23.90;99.90
18541;DHT22;9400;50.924;5.328;2022-10-28T15:03:59;23.90;99.90
18541;DHT22;9400;50.924;5.328;2022-10-28T15:06:31;23.80;99.90
18541;DHT22;9400;50.924;5.328;2022-10-28T15:09:07;24.00;99.90
18541;DHT22;9400;50.924;5.328;2022-10-28T15:11:42;23.80;99.90
18541;DHT22;9400;50.924;5.328;2022-10-28T15:14:27;23.70;99.90
18541;DHT22;9400;50.924;5.328;2022-10-28T15:16:56;23.70;99.90
18541;DHT22;9400;50.924;5.328;2022-10-28T15:19:26;23.40;99.90
18541;DHT22;9400;50.924;5.328;2022-10-28T15:22:04;23.30;99.90
18541;DHT22;9400;50.924;5.328;2022-10-28T15:24:32;23.30;99.90
18541;DHT22;9400;50.924;5.328;2022-10-28T15:27:02;23.20;99.90
18541;DHT22;9400;50.924;5.328;2022-10-28T15:29:30;23.20;99.90
18541;DHT22;9400;50.924;5.328;2022-10-28T15:32:22;23.10;99.90
18541;DHT22;9400;50.924;5.328;2022-10-28T15:34:51;23.00;99.90
18541;DHT22;9400;50.924;5.328;2022-10-28T15:37:20;23.00;99.90
18541;DHT22;9400;50.924;5.328;2022-10-28T15:39:50;22.90;99.90
18541;DHT22;9400;50.924;5.328;2022-10-28T15:42:38;22.80;99.90
18541;DHT22;9400;50.924;5.328;2022-10-28T15:45:15;22.90;99.90
18541;DHT22;9400;50.924;5.328;2022-10-28T15:47:44;22.80;99.90
18541;DHT22;9400;50.924;5.328;2022-10-28T15:50:33;22.70;99.90
18541;DHT22;9400;50.924;5.328;2022-10-28T15:53:31;22.70;99.90
18541;DHT22;9400;50.924;5.328;2022-10-28T15:56:20;22.60;99.90
18541;DHT22;9400;50.924;5.328;2022-10-28T15:59:04;22.40;99.90
18541;DHT22;9400;50.924;5.328;2022-10-28T16:01:38;22.40;99.90
18541;DHT22;9400;50.924;5.328;2022-10-28T16:07:09;22.10;99.90
18541;DHT22;9400;50.924;5.328;2022-10-28T16:09:42;22.00;99.90
18541;DHT22;9400;50.924;5.328;2022-10-28T16:12:13;21.90;99.90
18541;DHT22;9400;50.924;5.328;2022-10-28T16:14:44;21.80;99.90
18541;DHT22;9400;50.924;5.328;2022-10-28T16:17:15;21.60;99.90
18541;DHT22;9400;50.924;5.328;2022-10-28T16:19:50;21.60;99.90
18541;DHT22;9400;50.924;5.328;2022-10-28T16:22:20;21.60;99.90
18541;DHT22;9400;50.924;5.328;2022-10-28T16:24:51;21.50;99.90
18541;DHT22;9400;50.924;5.328;2022-10-28T16:27:21;21.40;99.90
18541;DHT22;9400;50.924;5.328;2022-10-28T16:29:53;21.30;99.90
18541;DHT22;9400;50.924;5.328;2022-10-28T16:32:25;21.20;99.90
18541;DHT22;9400;50.924;5.328;2022-10-28T16:34:54;21.20;99.90
18541;DHT22;9400;50.924;5.328;2022-10-28T16:37:24;21.00;99.90
18541;DHT22;9400;50.924;5.328;2022-10-28T16:39:52;20.90;99.90
18541;DHT22;9400;50.924;5.328;2022-10-28T16:42:21;20.90;99.90
18541;DHT22;9400;50.924;5.328;2022-10-28T16:44:49;20.90;99.90
18541;DHT22;9400;50.924;5.328;2022-10-28T16:47:20;20.80;99.90
18541;DHT22;9400;50.924;5.328;2022-10-28T16:49:50;20.80;99.90
18541;DHT22;9400;50.924;5.328;2022-10-28T16:52:19;20.70;99.90
18541;DHT22;9400;50.924;5.328;2022-10-28T16:54:48;20.80;99.90